logo
Search for airport 
image banner adimage banner adimage banner ad
image banner ad

ED0223 - Iserlohn-Rheinermark

Located in , Germany

ICAO - , IATA -

Data provided by Airmate  

General information

Coordinates: N51°25'44" E7°38'36"
Elevation is 627 feet MSL.
 
View others Airports in North Rhine-Westphalia

Operational data

Special qualification required
Current time UTC:
Current local time:
Weather at : EDLW - Dortmund ( 10 km )
METAR: EDLW 171350Z 28006KT 230V020 9999 FEW036 21/13 Q1020
TAF: TAF EDLW 171100Z 1712/1812 24010KT 9999 BKN025 BECMG 1714/1716 30006KT BECMG 1718/1720 VRB03KT
View NOTAMs / SUP AIP / TFR affecting this airport [VIEW]
Communications frequencies: [VIEW]

Runways:

RWY identifierQFULength (ft)Width (ft)SurfaceLDA (ft)
0769°157598OTHER
25249°157598OTHER

Airport contact information

Address: Germany

Satellite view of ED0223